createdAt,value
2022-08-02T00:01:39.213Z,4.10
2022-08-02T00:04:12.025Z,4.20
2022-08-02T00:06:44.233Z,4.50
2022-08-02T00:09:16.714Z,4.00
2022-08-02T00:11:48.867Z,5.20
2022-08-02T00:14:21.651Z,5.00
2022-08-02T00:16:54.154Z,5.20
2022-08-02T00:19:26.764Z,5.70
2022-08-02T00:21:58.911Z,5.80
2022-08-02T00:24:31.321Z,5.70
2022-08-02T00:27:05.021Z,5.20
2022-08-02T00:29:52.545Z,5.20
2022-08-02T00:32:25.292Z,5.70
2022-08-02T00:34:57.829Z,5.80
2022-08-02T00:37:30.234Z,6.00
2022-08-02T00:40:03.636Z,6.30
2022-08-02T00:42:36.013Z,5.90
2022-08-02T00:45:09.934Z,5.20
2022-08-02T00:47:41.997Z,6.00
2022-08-02T00:50:14.904Z,5.80
2022-08-02T00:52:47.511Z,5.50
2022-08-02T00:55:23.575Z,5.50
2022-08-02T00:58:03.928Z,5.80
2022-08-02T01:00:36.838Z,5.80
2022-08-02T01:03:08.898Z,5.50
2022-08-02T01:06:09.167Z,4.90
2022-08-02T01:08:34.716Z,5.60
2022-08-02T01:11:08.952Z,5.20
2022-08-02T01:13:41.612Z,4.90
2022-08-02T01:16:17.601Z,5.40
2022-08-02T01:18:55.760Z,5.90
2022-08-02T01:21:39.660Z,6.20
2022-08-02T01:24:32.003Z,5.60
2022-08-02T01:27:27.743Z,5.40
2022-08-02T01:30:02.924Z,5.60
2022-08-02T01:32:43.008Z,5.80
2022-08-02T01:35:18.806Z,5.40
2022-08-02T01:37:56.353Z,5.80
2022-08-02T01:40:31.692Z,5.50
2022-08-02T01:43:05.168Z,5.80
2022-08-02T01:45:40.584Z,5.40
2022-08-02T01:48:14.315Z,5.50
2022-08-02T01:50:48.216Z,5.60
2022-08-02T01:53:23.253Z,5.60
2022-08-02T01:55:59.074Z,5.50
2022-08-02T01:58:36.521Z,5.70
2022-08-02T02:03:43.468Z,6.20
2022-08-02T02:06:16.422Z,5.80
2022-08-02T02:08:51.430Z,5.80
2022-08-02T02:12:09.529Z,5.70
2022-08-02T02:14:18.362Z,5.90
2022-08-02T02:16:52.152Z,5.80
2022-08-02T02:19:25.828Z,6.00
2022-08-02T02:21:58.427Z,6.30
2022-08-02T02:24:31.024Z,5.90
2022-08-02T02:27:08.592Z,6.00
2022-08-02T02:29:45.279Z,5.60
2022-08-02T02:32:19.957Z,6.10
2022-08-02T02:34:53.311Z,5.90
2022-08-02T02:37:28.113Z,5.60
2022-08-02T02:40:02.036Z,6.00
2022-08-02T02:42:36.392Z,6.10
2022-08-02T02:45:10.841Z,7.90
2022-08-02T02:47:44.334Z,6.50
2022-08-02T02:50:46.957Z,5.90
2022-08-02T02:53:22.313Z,5.50
2022-08-02T02:56:01.771Z,6.40
2022-08-02T02:58:35.396Z,6.40
2022-08-02T03:01:53.198Z,5.60
2022-08-02T03:04:18.720Z,6.30
2022-08-02T03:06:51.451Z,6.00
2022-08-02T03:09:23.577Z,6.10
2022-08-02T03:11:56.702Z,5.60
2022-08-02T03:14:28.909Z,6.00
2022-08-02T03:17:01.581Z,6.20
2022-08-02T03:19:33.883Z,6.60
2022-08-02T03:22:06.508Z,6.70
2022-08-02T03:24:38.669Z,6.60
2022-08-02T03:27:11.587Z,7.60
2022-08-02T03:29:43.688Z,8.50
2022-08-02T03:32:16.313Z,8.10
2022-08-02T03:34:48.667Z,8.20
2022-08-02T03:37:22.424Z,8.20
2022-08-02T03:39:55.022Z,8.60
2022-08-02T03:42:29.073Z,8.70
2022-08-02T03:45:07.763Z,9.60
2022-08-02T03:47:43.221Z,9.60
2022-08-02T03:50:15.744Z,9.40
2022-08-02T03:52:49.476Z,10.00
2022-08-02T03:55:21.626Z,9.60
2022-08-02T03:57:54.561Z,9.80
2022-08-02T04:00:26.637Z,10.00
2022-08-02T04:02:59.757Z,9.80
2022-08-02T04:05:32.026Z,8.80
2022-08-02T04:08:35.965Z,8.90
2022-08-02T04:11:14.414Z,9.20
2022-08-02T04:13:46.882Z,8.60
2022-08-02T04:16:24.334Z,8.80
2022-08-02T04:18:58.050Z,8.00
2022-08-02T04:21:48.615Z,8.40
2022-08-02T04:24:28.100Z,7.50
2022-08-02T04:27:19.407Z,7.60
2022-08-02T04:29:55.126Z,7.10
2022-08-02T04:32:28.352Z,7.30
2022-08-02T04:38:09.110Z,7.20
2022-08-02T04:40:51.353Z,6.50
2022-08-02T04:43:23.917Z,6.50
2022-08-02T04:45:57.396Z,6.70
2022-08-02T04:48:29.935Z,6.40
2022-08-02T04:51:02.830Z,6.00
2022-08-02T04:53:35.087Z,6.30
2022-08-02T04:56:08.329Z,6.00
2022-08-02T04:58:41.009Z,6.20
2022-08-02T05:01:13.834Z,6.60
2022-08-02T05:03:46.791Z,5.90
2022-08-02T05:06:20.933Z,6.50
2022-08-02T05:08:53.724Z,4.80
2022-08-02T05:11:34.740Z,5.80
2022-08-02T05:14:09.172Z,5.40
2022-08-02T05:16:41.712Z,5.80
2022-08-02T05:19:13.798Z,5.10
2022-08-02T05:21:46.201Z,5.50
2022-08-02T05:24:18.319Z,5.10
2022-08-02T05:26:50.993Z,5.20
2022-08-02T05:29:23.315Z,4.40
2022-08-02T05:31:55.730Z,5.30
2022-08-02T05:34:27.841Z,5.10
2022-08-02T05:37:00.351Z,4.30
2022-08-02T05:39:32.792Z,4.60
2022-08-02T05:42:05.528Z,4.30
2022-08-02T05:44:37.765Z,4.30
2022-08-02T05:47:10.630Z,4.00
2022-08-02T05:49:43.226Z,3.60
2022-08-02T05:52:19.355Z,3.70
2022-08-02T05:54:56.157Z,4.10
2022-08-02T05:57:47.411Z,3.50
2022-08-02T06:00:20.834Z,3.80
2022-08-02T06:03:05.222Z,3.40
2022-08-02T06:05:43.130Z,3.80
2022-08-02T06:08:17.032Z,3.40
2022-08-02T06:10:51.079Z,2.50
2022-08-02T06:13:23.938Z,3.40
2022-08-02T06:15:59.787Z,3.10
2022-08-02T06:18:32.942Z,3.20
2022-08-02T06:22:33.525Z,2.80
2022-08-02T06:24:02.222Z,3.10
2022-08-02T06:26:35.641Z,2.60
2022-08-02T06:29:07.918Z,2.10
2022-08-02T06:31:42.173Z,2.50
2022-08-02T06:34:17.910Z,2.20
2022-08-02T06:37:02.647Z,2.00
2022-08-02T06:39:42.004Z,2.30
2022-08-02T06:42:17.138Z,2.60
2022-08-02T06:45:00.348Z,2.10
2022-08-02T06:47:32.399Z,1.80
2022-08-02T06:50:05.078Z,2.10
2022-08-02T06:52:37.711Z,2.20
2022-08-02T06:55:11.709Z,1.80
2022-08-02T06:57:43.908Z,2.00
2022-08-02T07:00:17.191Z,1.80
2022-08-02T07:02:50.277Z,2.10
2022-08-02T07:05:22.826Z,2.10
2022-08-02T07:07:55.137Z,2.20
2022-08-02T07:10:27.376Z,1.90
2022-08-02T07:12:59.967Z,2.40
2022-08-02T07:15:32.696Z,2.10
2022-08-02T07:18:05.156Z,1.90
2022-08-02T07:20:37.557Z,1.80
2022-08-02T07:23:09.677Z,2.20
2022-08-02T07:26:03.026Z,2.00
2022-08-02T07:28:35.355Z,1.80
2022-08-02T07:31:07.854Z,2.10
2022-08-02T07:33:43.323Z,1.90
2022-08-02T07:36:22.755Z,1.70
2022-08-02T07:38:55.055Z,1.60
2022-08-02T07:41:27.407Z,1.70
2022-08-02T07:43:59.515Z,1.50
2022-08-02T07:46:33.559Z,1.70
2022-08-02T07:49:05.882Z,1.30
2022-08-02T07:51:38.153Z,1.40
2022-08-02T07:54:10.381Z,1.90
2022-08-02T07:56:59.019Z,1.60
2022-08-02T07:59:31.507Z,1.60
2022-08-02T08:02:04.129Z,1.50
2022-08-02T08:04:36.553Z,1.60
2022-08-02T08:07:11.178Z,1.40
2022-08-02T08:09:45.225Z,1.50
2022-08-02T08:12:17.895Z,2.00
2022-08-02T08:14:49.928Z,1.80
2022-08-02T08:17:22.617Z,1.60
2022-08-02T08:19:54.752Z,1.80
2022-08-02T08:22:27.075Z,1.60
2022-08-02T08:24:59.381Z,1.70
2022-08-02T08:27:31.744Z,1.80
2022-08-02T08:30:04.731Z,1.80
2022-08-02T08:32:37.375Z,1.60
2022-08-02T08:35:10.842Z,1.30
2022-08-02T08:37:43.517Z,1.50
2022-08-02T08:40:19.578Z,1.60
2022-08-02T08:42:52.403Z,1.50
2022-08-02T08:45:24.919Z,1.60
2022-08-02T08:48:07.845Z,1.20
2022-08-02T08:50:47.318Z,1.30
2022-08-02T08:53:21.458Z,1.30
2022-08-02T08:56:14.088Z,1.60
2022-08-02T08:58:48.779Z,1.70
2022-08-02T09:01:21.707Z,2.60
2022-08-02T09:03:54.488Z,1.50
2022-08-02T09:06:27.258Z,1.70
2022-08-02T09:08:59.641Z,1.80
2022-08-02T09:11:32.184Z,1.80
2022-08-02T09:14:06.135Z,1.30
2022-08-02T09:16:40.757Z,1.60
2022-08-02T09:19:23.554Z,1.50
2022-08-02T09:22:04.922Z,1.50
2022-08-02T09:24:47.217Z,1.70
2022-08-02T09:27:21.811Z,1.90
2022-08-02T09:30:12.439Z,1.50
2022-08-02T09:32:50.049Z,2.00
2022-08-02T09:36:05.909Z,1.50
2022-08-02T09:38:29.852Z,12.30
2022-08-02T09:41:03.011Z,3.40
2022-08-02T09:43:57.933Z,2.90
2022-08-02T09:46:39.113Z,2.80
2022-08-02T09:49:13.296Z,3.30
2022-08-02T09:51:53.608Z,2.40
2022-08-02T09:54:27.773Z,2.20
2022-08-02T09:57:01.930Z,2.30
2022-08-02T09:59:34.043Z,2.70
2022-08-02T10:02:16.888Z,2.80
2022-08-02T10:04:52.479Z,2.40
2022-08-02T10:07:26.491Z,2.10
2022-08-02T10:09:59.183Z,1.80
2022-08-02T10:12:31.894Z,2.10
2022-08-02T10:15:04.032Z,2.30
2022-08-02T10:17:36.915Z,2.60
2022-08-02T10:20:10.810Z,2.40
2022-08-02T10:22:45.002Z,2.70
2022-08-02T10:25:18.338Z,2.90
2022-08-02T10:28:04.807Z,3.10
2022-08-02T10:30:41.127Z,2.90
2022-08-02T10:33:18.146Z,2.90
2022-08-02T10:36:04.470Z,2.90
2022-08-02T10:38:39.933Z,3.40
2022-08-02T10:41:12.782Z,4.40
2022-08-02T10:43:50.670Z,3.20
2022-08-02T10:46:32.626Z,3.00
2022-08-02T10:49:38.570Z,3.20
2022-08-02T10:52:11.485Z,3.20
2022-08-02T10:54:45.488Z,3.20
2022-08-02T10:57:22.830Z,2.80
2022-08-02T10:59:56.630Z,2.70
2022-08-02T11:02:53.134Z,2.70
2022-08-02T11:05:42.182Z,4.50
2022-08-02T11:08:25.161Z,3.20
2022-08-02T11:11:02.241Z,3.30
2022-08-02T11:13:54.435Z,4.80
2022-08-02T11:16:46.850Z,3.60
2022-08-02T11:19:18.930Z,3.30
2022-08-02T11:22:03.364Z,2.10
2022-08-02T11:24:37.388Z,2.70
2022-08-02T11:27:18.063Z,2.50
2022-08-02T11:29:53.832Z,2.40
2022-08-02T11:32:31.324Z,2.70
2022-08-02T11:35:04.540Z,2.60
2022-08-02T11:37:39.069Z,2.50
2022-08-02T11:40:19.593Z,2.20
2022-08-02T11:42:54.215Z,2.30
2022-08-02T11:45:30.060Z,1.90
2022-08-02T11:48:02.892Z,2.10
2022-08-02T11:50:35.124Z,2.10
2022-08-02T11:53:16.037Z,2.10
2022-08-02T11:55:48.223Z,2.70
2022-08-02T11:58:20.844Z,2.40
2022-08-02T12:00:54.582Z,2.40
2022-08-02T12:03:27.545Z,3.10
2022-08-02T12:06:06.086Z,2.40
2022-08-02T12:08:40.430Z,3.10
2022-08-02T12:11:12.489Z,2.30
2022-08-02T12:13:57.230Z,2.70
2022-08-02T12:16:54.558Z,2.10
2022-08-02T12:19:29.528Z,2.50
2022-08-02T12:22:13.139Z,2.50
2022-08-02T12:24:47.783Z,2.20
2022-08-02T12:27:34.345Z,2.30
2022-08-02T12:30:09.786Z,2.60
2022-08-02T12:32:42.727Z,2.50
2022-08-02T12:35:26.700Z,2.20
2022-08-02T12:37:59.450Z,2.20
2022-08-02T12:40:36.597Z,2.60
2022-08-02T12:43:17.346Z,2.20
2022-08-02T12:45:53.350Z,2.20
2022-08-02T12:48:39.218Z,2.40
2022-08-02T12:51:25.519Z,2.50
2022-08-02T12:54:24.171Z,2.30
2022-08-02T12:57:15.717Z,2.50
2022-08-02T12:59:53.784Z,2.60
2022-08-02T13:02:26.530Z,2.80
2022-08-02T13:05:01.959Z,2.60
2022-08-02T13:07:34.446Z,2.40
2022-08-02T13:10:10.050Z,2.70
2022-08-02T13:12:42.999Z,2.40
2022-08-02T13:15:48.785Z,2.40
2022-08-02T13:18:08.254Z,2.90
2022-08-02T13:20:45.576Z,2.10
2022-08-02T13:23:21.786Z,2.50
2022-08-02T13:25:54.904Z,2.40
2022-08-02T13:28:27.725Z,2.50
2022-08-02T13:31:14.947Z,2.30
2022-08-02T13:33:52.411Z,3.00
2022-08-02T13:36:24.546Z,2.50
2022-08-02T13:38:57.354Z,2.40
2022-08-02T13:41:32.977Z,2.30
2022-08-02T13:44:10.300Z,2.20
2022-08-02T13:46:45.225Z,2.50
2022-08-02T13:49:21.614Z,2.60
2022-08-02T13:51:54.220Z,2.70
2022-08-02T13:54:26.703Z,2.40
2022-08-02T13:56:58.918Z,2.30
2022-08-02T13:59:58.017Z,2.40
2022-08-02T14:02:24.150Z,2.30
2022-08-02T14:04:57.145Z,2.40
2022-08-02T14:07:29.356Z,2.50
2022-08-02T14:10:02.006Z,2.70
2022-08-02T14:12:34.335Z,3.20
2022-08-02T14:15:08.108Z,3.00
2022-08-02T14:17:40.482Z,2.60
2022-08-02T14:20:20.111Z,3.20
2022-08-02T14:22:55.074Z,2.60
2022-08-02T14:25:27.494Z,2.10
2022-08-02T14:27:59.737Z,2.90
2022-08-02T14:30:32.548Z,2.90
2022-08-02T14:33:05.206Z,2.70
2022-08-02T14:35:37.926Z,2.80
2022-08-02T14:38:12.871Z,2.60
2022-08-02T14:40:45.410Z,2.50
2022-08-02T14:43:37.722Z,2.70
2022-08-02T14:46:13.175Z,2.60
2022-08-02T14:48:45.256Z,2.40
2022-08-02T14:51:17.795Z,2.60
2022-08-02T14:54:03.155Z,2.70
2022-08-02T14:56:36.619Z,3.00
2022-08-02T14:59:08.820Z,2.50
2022-08-02T15:01:41.402Z,2.90
2022-08-02T15:04:13.807Z,3.00
2022-08-02T15:06:46.418Z,2.70
2022-08-02T15:09:18.662Z,2.70
2022-08-02T15:11:51.787Z,2.90
2022-08-02T15:14:26.342Z,2.80
2022-08-02T15:16:59.355Z,2.90
2022-08-02T15:19:56.704Z,2.60
2022-08-02T15:22:24.549Z,2.50
2022-08-02T15:24:57.238Z,2.80
2022-08-02T15:27:29.879Z,2.50
2022-08-02T15:30:02.087Z,3.10
2022-08-02T15:32:34.996Z,2.40
2022-08-02T15:35:09.243Z,2.70
2022-08-02T15:37:41.956Z,3.10
2022-08-02T15:40:15.192Z,2.70
2022-08-02T15:42:47.777Z,3.80
2022-08-02T15:45:20.728Z,2.50
2022-08-02T15:47:53.284Z,2.80
2022-08-02T15:50:25.656Z,2.80
2022-08-02T15:52:58.134Z,2.50
2022-08-02T15:55:30.265Z,3.00
2022-08-02T15:58:23.342Z,2.70
2022-08-02T16:00:55.836Z,2.90
2022-08-02T16:03:28.082Z,3.10
2022-08-02T16:06:00.524Z,3.30
2022-08-02T16:08:32.955Z,2.80
2022-08-02T16:11:05.205Z,2.90
2022-08-02T16:13:54.474Z,2.70
2022-08-02T16:16:34.618Z,2.60
2022-08-02T16:19:46.463Z,2.80
2022-08-02T16:21:59.935Z,2.70
2022-08-02T16:24:32.344Z,3.00
2022-08-02T16:27:04.764Z,3.10
2022-08-02T16:29:37.700Z,3.20
2022-08-02T16:32:11.717Z,3.20
2022-08-02T16:35:07.826Z,2.90
2022-08-02T16:37:51.692Z,2.70
2022-08-02T16:40:25.418Z,2.90
2022-08-02T16:42:57.673Z,3.30
2022-08-02T16:45:32.668Z,2.90
2022-08-02T16:48:07.215Z,2.40
2022-08-02T16:50:41.852Z,3.00
2022-08-02T16:53:34.203Z,3.20
2022-08-02T16:56:11.191Z,2.90
2022-08-02T16:58:45.034Z,3.50
2022-08-02T17:01:27.265Z,3.50
2022-08-02T17:04:00.110Z,5.20
2022-08-02T17:06:32.680Z,3.00
2022-08-02T17:09:05.186Z,3.20
2022-08-02T17:11:41.729Z,3.60
2022-08-02T17:14:21.798Z,3.40
2022-08-02T17:16:59.415Z,3.10
2022-08-02T17:22:24.051Z,2.70
2022-08-02T17:24:59.327Z,2.90
2022-08-02T17:27:32.110Z,3.00
2022-08-02T17:30:05.541Z,3.60
2022-08-02T17:32:45.344Z,4.60
2022-08-02T17:35:17.884Z,3.20
2022-08-02T17:37:54.615Z,2.70
2022-08-02T17:40:32.407Z,2.80
2022-08-02T17:43:14.222Z,2.60
2022-08-02T17:45:59.924Z,3.00
2022-08-02T17:48:55.088Z,2.90
2022-08-02T17:52:14.987Z,3.00
2022-08-02T17:54:21.151Z,3.90
2022-08-02T17:56:55.709Z,3.40
2022-08-02T17:59:30.836Z,3.20
2022-08-02T18:02:14.448Z,3.50
2022-08-02T18:04:47.282Z,3.60
2022-08-02T18:07:25.252Z,3.70
2022-08-02T18:09:57.711Z,4.00
2022-08-02T18:12:32.063Z,3.90
2022-08-02T18:15:06.890Z,3.70
2022-08-02T18:17:46.871Z,3.50
2022-08-02T18:20:19.118Z,4.10
2022-08-02T18:22:55.574Z,4.20
2022-08-02T18:25:37.124Z,4.30
2022-08-02T18:28:16.377Z,5.00
2022-08-02T18:30:48.722Z,4.60
2022-08-02T18:33:57.333Z,4.80
2022-08-02T18:36:24.611Z,4.60
2022-08-02T18:38:57.534Z,4.10
2022-08-02T18:41:29.948Z,3.40
2022-08-02T18:44:07.768Z,4.30
2022-08-02T18:46:41.582Z,4.20
2022-08-02T18:49:15.587Z,4.60
2022-08-02T18:51:47.999Z,3.60
2022-08-02T18:54:30.760Z,6.10
2022-08-02T18:57:51.350Z,5.40
2022-08-02T18:59:58.984Z,4.70
2022-08-02T19:02:31.636Z,4.40
2022-08-02T19:05:06.827Z,4.90
2022-08-02T19:07:50.724Z,4.30
2022-08-02T19:10:25.002Z,4.70
2022-08-02T19:12:57.713Z,5.00
2022-08-02T19:15:29.970Z,5.10
2022-08-02T19:18:04.559Z,5.40
2022-08-02T19:20:37.453Z,5.20
2022-08-02T19:23:11.623Z,4.90
2022-08-02T19:25:54.422Z,5.50
2022-08-02T19:28:28.080Z,5.10
2022-08-02T19:31:00.423Z,5.30
2022-08-02T19:34:04.793Z,5.50
2022-08-02T19:36:25.562Z,4.50
2022-08-02T19:39:00.567Z,4.20
2022-08-02T19:41:44.049Z,5.00
2022-08-02T19:44:23.173Z,5.00
2022-08-02T19:47:00.982Z,5.20
2022-08-02T19:49:39.433Z,5.00
2022-08-02T19:52:22.010Z,5.10
2022-08-02T19:55:01.900Z,4.90
2022-08-02T19:57:49.890Z,4.50
2022-08-02T20:00:26.884Z,5.30
2022-08-02T20:03:00.130Z,6.40
2022-08-02T20:05:33.252Z,5.70
2022-08-02T20:08:05.789Z,5.70
2022-08-02T20:10:41.071Z,5.40
2022-08-02T20:13:18.188Z,5.60
2022-08-02T20:15:57.497Z,6.30
2022-08-02T20:18:30.633Z,5.90
2022-08-02T20:21:03.559Z,5.30
2022-08-02T20:23:35.727Z,7.40
2022-08-02T20:26:11.261Z,6.60
2022-08-02T20:28:43.484Z,7.30
2022-08-02T20:31:16.580Z,7.40
2022-08-02T20:33:56.089Z,7.20
2022-08-02T20:36:29.614Z,6.80
2022-08-02T20:39:01.591Z,6.30
2022-08-02T20:41:36.838Z,6.40
2022-08-02T20:44:31.000Z,6.20
2022-08-02T20:47:04.598Z,5.80
2022-08-02T20:49:57.019Z,6.10
2022-08-02T20:52:29.993Z,5.60
2022-08-02T20:55:02.397Z,5.20
2022-08-02T20:57:48.484Z,5.00
2022-08-02T21:00:21.751Z,5.40
2022-08-02T21:02:55.631Z,6.40
2022-08-02T21:05:43.863Z,5.60
2022-08-02T21:08:21.290Z,5.30
2022-08-02T21:10:55.552Z,5.00
2022-08-02T21:13:29.947Z,4.70
2022-08-02T21:16:05.711Z,5.30
2022-08-02T21:18:41.232Z,4.90
2022-08-02T21:21:16.260Z,4.80
2022-08-02T21:23:54.871Z,5.00
2022-08-02T21:26:28.083Z,6.10
2022-08-02T21:29:04.104Z,5.80
2022-08-02T21:31:36.754Z,5.20
2022-08-02T21:34:26.855Z,5.40
2022-08-02T21:36:59.566Z,4.90
2022-08-02T21:39:32.496Z,5.50
2022-08-02T21:42:04.704Z,5.80
2022-08-02T21:44:37.311Z,5.70
2022-08-02T21:47:16.865Z,6.50
2022-08-02T21:50:09.593Z,6.50
2022-08-02T21:52:42.373Z,6.00
2022-08-02T21:56:00.296Z,6.40
2022-08-02T21:58:20.017Z,5.70
2022-08-02T22:00:52.826Z,6.20
2022-08-02T22:03:25.056Z,5.40
2022-08-02T22:06:02.343Z,6.70
2022-08-02T22:08:36.780Z,7.10
2022-08-02T22:11:17.143Z,7.50
2022-08-02T22:13:49.506Z,7.00
2022-08-02T22:16:23.241Z,7.10
2022-08-02T22:18:58.377Z,7.10
2022-08-02T22:21:46.548Z,7.20
2022-08-02T22:24:30.308Z,7.50
2022-08-02T22:27:03.613Z,7.50
2022-08-02T22:29:35.783Z,7.10
2022-08-02T22:32:11.737Z,7.40
2022-08-02T22:34:54.148Z,7.90
2022-08-02T22:38:16.239Z,8.10
2022-08-02T22:40:18.754Z,9.70
2022-08-02T22:42:51.129Z,8.90
2022-08-02T22:45:23.736Z,9.30
2022-08-02T22:47:56.593Z,8.70
2022-08-02T22:50:29.391Z,8.80
2022-08-02T22:53:03.043Z,9.30
2022-08-02T22:55:35.871Z,10.00
2022-08-02T22:58:14.608Z,10.00
2022-08-02T22:58:38.007Z,3.00
2022-08-02T23:00:51.544Z,10.00
2022-08-02T23:03:24.221Z,10.10
2022-08-02T23:05:56.365Z,10.00
2022-08-02T23:08:29.090Z,10.30
2022-08-02T23:11:01.360Z,9.10
2022-08-02T23:13:34.632Z,9.50
2022-08-02T23:16:25.010Z,9.90
2022-08-02T23:19:15.079Z,9.90
2022-08-02T23:22:01.489Z,10.20
2022-08-02T23:24:35.804Z,9.80
2022-08-02T23:27:08.246Z,10.80
2022-08-02T23:29:40.603Z,10.60
2022-08-02T23:32:12.881Z,10.10
2022-08-02T23:34:46.948Z,11.60
2022-08-02T23:37:19.156Z,10.90
2022-08-02T23:39:53.333Z,11.20
2022-08-02T23:42:26.048Z,11.40
2022-08-02T23:44:59.138Z,12.00
2022-08-02T23:47:31.713Z,11.20
2022-08-02T23:50:04.208Z,10.60
2022-08-02T23:52:36.802Z,10.00
2022-08-02T23:55:10.812Z,9.60
2022-08-02T23:57:43.561Z,10.50
